Time;durP1;ratioP1;P1;durP2;ratioP2;P2;SDS_P1;SDS_P2;PMS_P1;PMS_P2;Temp;Humidity;BMP_temperature;BMP_pressure;BME280_temperature;BME280_humidity;BME280_pressure;Samples;Min_cycle;Max_cycle;Signal;HPM_P1;HPM_P2
2022/10/10 00:01:36;;;;;;;0.00;0.00;;;;;;;9.54;77.42;100676.44;7363251;19;20018;-61
2022/10/10 00:04:04;;;;;;;0.00;0.00;;;;;;;9.51;77.48;100673.88;7364167;19;20014;-62
2022/10/10 00:06:29;;;;;;;;;;;;;;;9.52;75.41;100682.53;7362767;19;20585;-61
2022/10/10 00:08:54;;;;;;;0.00;0.00;;;;;;;9.38;77.55;100663.69;7363585;19;19919;-61
2022/10/10 00:11:22;;;;;;;0.00;0.00;;;;;;;9.40;77.32;100669.75;7364268;19;20497;-61
2022/10/10 00:13:47;;;;;;;0.00;0.00;;;;;;;9.39;77.61;100676.72;7365184;19;20701;-61
2022/10/10 00:16:14;;;;;;;0.00;0.00;;;;;;;9.39;77.39;100681.06;7364492;19;20085;-62
2022/10/10 00:18:40;;;;;;;0.00;0.00;;;;;;;9.35;77.84;100685.47;7362457;19;20560;-60
2022/10/10 00:21:06;;;;;;;0.00;0.00;;;;;;;9.35;76.81;100688.06;7365935;19;20568;-61
2022/10/10 00:23:32;;;;;;;0.00;0.00;;;;;;;9.21;77.94;100675.28;7361502;19;20018;-61
2022/10/10 00:25:58;;;;;;;0.00;0.00;;;;;;;9.29;77.74;100689.06;7364135;19;20014;-60
2022/10/10 00:28:24;;;;;;;0.00;0.00;;;;;;;9.27;77.69;100692.56;7363487;19;20101;-62
2022/10/10 00:30:49;;;;;;;0.00;0.00;;;;;;;9.26;77.71;100690.84;7363786;19;20081;-61
2022/10/10 00:33:15;;;;;;;0.00;0.00;;;;;;;9.26;78.00;100701.25;7362516;19;20679;-62
2022/10/10 00:35:40;;;;;;;0.00;0.00;;;;;;;9.19;78.01;100691.84;7363555;19;20010;-61
2022/10/10 00:38:06;;;;;;;0.00;0.00;;;;;;;9.23;78.26;100706.53;7365019;19;20030;-61
2022/10/10 00:40:31;;;;;;;0.00;0.00;;;;;;;9.21;77.99;100703.09;7356899;19;20007;-61
2022/10/10 00:42:57;;;;;;;0.00;0.00;;;;;;;9.20;77.80;100702.22;7363499;19;20006;-61
2022/10/10 00:45:38;;;;;;;0.00;0.00;;;;;;;9.21;77.15;100703.09;7362955;19;20019;-61
2022/10/10 00:48:09;;;;;;;0.00;0.00;;;;;;;9.17;77.80;100715.28;7362836;19;20089;-62
2022/10/10 00:50:39;;;;;;;0.00;0.00;;;;;;;9.16;78.01;100710.97;7362246;19;20020;-61
2022/10/10 00:53:07;;;;;;;0.00;0.00;;;;;;;9.14;78.18;100717.13;7361722;19;20085;-61
2022/10/10 00:55:34;;;;;;;0.00;0.00;;;;;;;9.05;78.11;100708.56;7358428;19;20010;-61
2022/10/10 00:58:00;;;;;;;0.00;0.00;;;;;;;9.09;77.89;100719.78;7362246;19;20082;-61
2022/10/10 01:00:25;;;;;;;0.00;0.00;;;;;;;9.06;77.57;100720.69;7362075;19;20086;-61
2022/10/10 01:02:51;;;;;;;0.00;0.00;;;;;;;9.00;77.61;100715.59;7361527;19;20017;-60
2022/10/10 01:05:19;;;;;;;0.00;0.00;;;;;;;8.93;77.40;100708.75;7364156;19;20018;-61
2022/10/10 01:07:45;;;;;;;0.00;0.00;;;;;;;8.98;77.67;100727.78;7362880;19;20011;-61
2022/10/10 01:10:14;;;;;;;0.05;0.05;;;;;;;9.01;77.86;100738.13;7360016;19;20007;-60
2022/10/10 01:13:04;;;;;;;0.10;0.10;;;;;;;9.02;76.68;100746.81;7361669;19;20720;-61
2022/10/10 01:15:41;;;;;;;0.03;0.03;;;;;;;8.99;77.21;100742.53;7361692;19;20019;-61
2022/10/10 01:18:24;;;;;;;0.00;0.00;;;;;;;8.95;77.47;100738.22;7365600;19;20010;-61
2022/10/10 01:21:05;;;;;;;0.00;0.00;;;;;;;8.93;77.31;100742.63;7365266;19;20014;-61
2022/10/10 01:23:42;;;;;;;0.00;0.00;;;;;;;8.93;77.50;100750.44;7364249;19;20015;-61
2022/10/10 01:26:26;;;;;;;0.00;0.00;;;;;;;8.92;77.16;100748.72;7364997;19;20010;-61
2022/10/10 01:29:27;;;;;;;0.00;0.00;;;;;;;8.90;76.84;100760.03;7364146;19;20655;-61
2022/10/10 01:31:59;;;;;;;0.00;0.00;;;;;;;8.87;76.49;100765.25;7262782;19;2004019;-61
2022/10/10 01:34:33;;;;;;;0.00;0.00;;;;;;;8.83;77.21;100764.47;7365262;19;20014;-61
2022/10/10 01:37:12;;;;;;;0.00;0.00;;;;;;;8.82;77.41;100763.63;7361273;19;20794;-61
2022/10/10 01:39:40;;;;;;;0.00;0.00;;;;;;;8.81;77.55;100766.22;7365520;19;20018;-62
2022/10/10 01:42:22;;;;;;;0.00;0.00;;;;;;;8.79;77.35;100773.19;7364972;19;20024;-61
2022/10/10 01:44:47;;;;;;;0.00;0.00;;;;;;;8.71;77.30;100775.03;7365783;19;20014;-60
2022/10/10 01:47:13;;;;;;;0.00;0.00;;;;;;;8.68;77.71;100778.56;7363247;19;20013;-61
2022/10/10 01:49:43;;;;;;;0.05;0.05;;;;;;;8.74;77.10;100790.63;7365213;19;20023;-61
2022/10/10 01:52:16;;;;;;;0.00;0.00;;;;;;;8.72;77.52;100787.19;7362672;19;20007;-61
2022/10/10 01:55:10;;;;;;;0.00;0.00;;;;;;;8.73;76.66;100791.53;7366907;19;20033;-61
2022/10/10 01:58:25;;;;;;;0.00;0.00;;;;;;;8.72;76.77;100792.41;7256421;19;2004363;-60
2022/10/10 02:01:24;;;;;;;0.00;0.00;;;;;;;8.67;77.56;100796.78;7256481;19;2004192;-61
2022/10/10 02:04:00;;;;;;;0.00;0.00;;;;;;;8.68;77.48;100812.41;7258122;19;2004635;-61
2022/10/10 02:07:10;;;;;;;0.10;0.10;;;;;;;8.64;76.18;100802.06;7361858;19;20029;-61
2022/10/10 02:09:38;;;;;;;0.10;0.10;;;;;;;8.66;77.15;100813.28;7259217;19;2004198;-61
2022/10/10 02:12:06;;;;;;;0.00;0.00;;;;;;;8.66;77.19;100819.34;7361705;19;20026;-61
2022/10/10 02:14:42;;;;;;;0.00;0.00;;;;;;;8.68;76.87;100821.97;7362682;19;20010;-61
2022/10/10 02:17:11;;;;;;;0.08;0.08;;;;;;;8.62;77.55;100815.09;7364422;19;20013;-61
2022/10/10 02:19:40;;;;;;;0.00;0.00;;;;;;;8.63;78.05;100823.75;7360038;19;20423;-61
2022/10/10 02:22:06;;;;;;;0.00;0.00;;;;;;;8.67;77.61;100836.72;7360251;19;20637;-61
2022/10/10 02:24:31;;;;;;;0.00;0.00;;;;;;;8.67;77.59;100828.03;7363273;19;20031;-61
2022/10/10 02:27:44;;;;;;;0.00;0.00;;;;;;;8.66;76.98;100826.31;7360324;19;20085;-60
2022/10/10 02:30:11;;;;;;;0.00;0.00;;;;;;;8.71;77.91;100837.53;7255853;19;2004302;-60
2022/10/10 02:32:45;;;;;;;0.00;0.00;;;;;;;8.75;78.09;100839.22;7363888;19;20011;-61
2022/10/10 02:35:16;;;;;;;0.00;0.00;;;;;;;8.74;77.98;100842.69;7360133;19;20011;-61
2022/10/10 02:37:43;;;;;;;0.00;0.00;;;;;;;8.51;78.03;100815.19;7359278;19;20350;-60
2022/10/10 02:40:13;;;;;;;0.00;0.00;;;;;;;8.68;77.88;100843.66;7359404;19;20035;-60
2022/10/10 02:42:39;;;;;;;0.00;0.00;;;;;;;8.73;78.27;100841.84;7360929;19;20019;-61
2022/10/10 02:45:05;;;;;;;0.00;0.00;;;;;;;8.74;78.05;100842.69;7360158;19;20010;-61
2022/10/10 02:47:30;;;;;;;0.00;0.00;;;;;;;8.64;77.45;100835.91;7362814;19;20010;-61
2022/10/10 02:49:56;;;;;;;0.00;0.00;;;;;;;8.65;77.87;100846.28;7362526;19;20040;-61
2022/10/10 02:52:21;;;;;;;0.00;0.00;;;;;;;8.71;77.49;100854.00;7361353;19;22113;-61
2022/10/10 02:54:47;;;;;;;0.00;0.00;;;;;;;8.56;77.28;100833.38;7362310;19;20352;-61
2022/10/10 02:57:13;;;;;;;0.00;0.00;;;;;;;8.68;76.70;100853.19;7360362;19;20623;-61
2022/10/10 02:59:38;;;;;;;0.00;0.00;;;;;;;8.65;77.21;100861.91;7358447;19;20014;-61
2022/10/10 03:02:05;;;;;;;0.00;0.00;;;;;;;8.48;77.18;100836.09;7358743;19;20762;-61
2022/10/10 03:04:30;;;;;;;0.00;0.00;;;;;;;8.62;77.02;100872.38;7365944;19;20021;-61
2022/10/10 03:06:56;;;;;;;0.00;0.00;;;;;;;8.45;77.31;100849.13;7367803;19;20960;-61
2022/10/10 03:09:21;;;;;;;0.00;0.00;;;;;;;8.54;77.30;100867.22;7365683;19;20015;-60
2022/10/10 03:11:47;;;;;;;0.00;0.00;;;;;;;8.51;77.37;100866.41;7365673;19;20022;-60
2022/10/10 03:14:12;;;;;;;0.00;0.00;;;;;;;8.56;77.23;100891.50;7358930;19;20011;-61
2022/10/10 03:16:37;;;;;;;0.00;0.00;;;;;;;8.54;77.53;100893.25;7366972;19;20022;-60
2022/10/10 03:19:03;;;;;;;0.00;0.00;;;;;;;8.39;77.43;100877.81;7364708;19;20395;-60
2022/10/10 03:21:28;;;;;;;0.00;0.00;;;;;;;8.49;77.66;100897.66;7362084;19;20446;-59
2022/10/10 03:23:54;;;;;;;0.00;0.00;;;;;;;8.47;77.69;100896.81;7366202;19;20498;-59
2022/10/10 03:26:19;;;;;;;0.00;0.00;;;;;;;8.45;77.62;100898.56;7365305;19;20236;-59
2022/10/10 03:28:45;;;;;;;0.00;0.00;;;;;;;8.41;77.54;100896.88;7366322;19;20021;-61
2022/10/10 03:31:11;;;;;;;0.00;0.00;;;;;;;8.28;77.18;100879.66;7369335;19;20025;-61
2022/10/10 03:33:36;;;;;;;0.00;0.00;;;;;;;8.28;77.60;100879.66;7366374;19;20014;-61
2022/10/10 03:36:01;;;;;;;0.00;0.00;;;;;;;8.35;77.42;100896.91;7369485;19;20011;-61
2022/10/10 03:38:27;;;;;;;0.00;0.00;;;;;;;8.28;77.56;100884.84;7362904;19;20077;-61
2022/10/10 03:40:52;;;;;;;0.00;0.00;;;;;;;8.14;76.90;100871.13;7366511;19;20007;-62
2022/10/10 03:43:18;;;;;;;0.00;0.00;;;;;;;8.26;77.31;100897.00;7369675;19;20097;-60
2022/10/10 03:45:46;;;;;;;0.00;0.00;;;;;;;8.29;77.27;100912.59;7366696;19;20066;-61
2022/10/10 03:48:12;;;;;;;0.00;0.00;;;;;;;8.22;77.33;100908.34;7369565;19;20901;-61
2022/10/10 03:50:38;;;;;;;0.00;0.00;;;;;;;8.23;77.10;100917.84;7369287;19;20045;-61
2022/10/10 03:53:04;;;;;;;0.00;0.00;;;;;;;8.24;77.03;100919.56;7365126;19;20758;-61
2022/10/10 03:55:30;;;;;;;0.00;0.00;;;;;;;8.22;77.42;100923.94;7369372;19;20766;-60
2022/10/10 03:57:55;;;;;;;0.00;0.00;;;;;;;8.23;77.68;100930.88;7368409;19;20007;-60
2022/10/10 04:00:21;;;;;;;0.00;0.00;;;;;;;8.16;77.16;100931.78;7367000;19;20014;-61
2022/10/10 04:02:46;;;;;;;0.00;0.00;;;;;;;8.17;77.81;100936.13;7367325;19;20058;-61
2022/10/10 04:05:12;;;;;;;0.00;0.00;;;;;;;8.17;77.80;100941.34;7368394;19;20023;-61
2022/10/10 04:07:37;;;;;;;0.00;0.00;;;;;;;8.16;77.76;100943.06;7368916;19;20347;-60
2022/10/10 04:10:03;;;;;;;0.00;0.00;;;;;;;8.17;77.59;100949.13;7365432;19;20002;-61
2022/10/10 04:12:29;;;;;;;0.10;0.10;;;;;;;8.07;77.65;100941.41;7367007;19;21265;-61
2022/10/10 04:14:54;;;;;;;0.00;0.00;;;;;;;7.96;77.37;100925.03;7365947;19;20017;-61
2022/10/10 04:17:20;;;;;;;0.00;0.00;;;;;;;8.12;77.83;100956.13;7367064;19;20018;-60
2022/10/10 04:19:45;;;;;;;0.00;0.00;;;;;;;8.13;78.05;100957.84;7366836;19;20466;-61
2022/10/10 04:22:11;;;;;;;0.00;0.00;;;;;;;7.97;77.15;100931.94;7368227;19;20019;-61
2022/10/10 04:24:37;;;;;;;0.00;0.00;;;;;;;8.12;77.48;100962.19;7367116;19;20010;-60
2022/10/10 04:27:02;;;;;;;0.00;0.00;;;;;;;8.12;77.05;100974.31;7366165;19;20013;-61
2022/10/10 04:29:27;;;;;;;0.00;0.00;;;;;;;8.10;77.40;100973.44;7364797;19;20006;-61
2022/10/10 04:31:53;;;;;;;0.00;0.00;;;;;;;8.10;77.64;100978.66;7367297;19;20011;-61
2022/10/10 04:34:19;;;;;;;0.00;0.00;;;;;;;8.07;77.94;100975.22;7368475;19;20006;-61
2022/10/10 04:36:44;;;;;;;0.00;0.00;;;;;;;8.10;77.75;100983.84;7366526;19;20011;-61
2022/10/10 04:39:10;;;;;;;0.00;0.00;;;;;;;8.13;77.64;100994.25;7364051;19;20094;-60
2022/10/10 04:41:35;;;;;;;0.00;0.00;;;;;;;7.86;77.12;100945.94;7366270;19;20070;-60
2022/10/10 04:44:00;;;;;;;0.00;0.00;;;;;;;8.04;77.64;100977.81;7366348;19;20569;-61
2022/10/10 04:46:26;;;;;;;0.00;0.00;;;;;;;8.05;77.86;100981.28;7366110;19;20023;-61
2022/10/10 04:48:51;;;;;;;0.00;0.00;;;;;;;8.05;77.73;100982.16;7366379;19;20022;-61
2022/10/10 04:51:17;;;;;;;0.00;0.00;;;;;;;8.02;77.64;100987.41;7366522;19;20014;-61
2022/10/10 04:53:42;;;;;;;0.00;0.00;;;;;;;8.16;77.86;101009.81;7368137;19;20006;-61
2022/10/10 04:56:08;;;;;;;0.10;0.10;;;;;;;8.15;77.91;101019.34;7365231;19;20020;-61
2022/10/10 04:58:33;;;;;;;0.00;0.00;;;;;;;7.57;77.60;100926.19;7362672;19;20066;-60
2022/10/10 05:00:59;;;;;;;0.00;0.00;;;;;;;8.14;77.61;101017.63;7364759;19;20406;-60
2022/10/10 05:03:24;;;;;;;0.00;0.00;;;;;;;8.17;77.72;101037.56;7365324;19;20033;-60
2022/10/10 05:05:51;;;;;;;0.00;0.00;;;;;;;8.14;77.87;101038.44;7366197;19;20011;-61
2022/10/10 05:08:17;;;;;;;0.00;0.00;;;;;;;8.16;77.75;101046.22;7366713;19;20565;-60
2022/10/10 05:10:45;;;;;;;0.08;0.08;;;;;;;8.12;78.05;101045.41;7366034;19;20014;-60
2022/10/10 05:13:11;;;;;;;;;;;;;;;8.13;76.36;101046.28;7366107;19;20047;-61
2022/10/10 05:15:37;;;;;;;0.00;0.00;;;;;;;8.14;77.06;101054.06;7367058;19;19922;-59
2022/10/10 05:18:03;;;;;;;0.08;0.08;;;;;;;8.13;76.88;101062.75;7363332;19;20096;-61
2022/10/10 05:20:29;;;;;;;0.00;0.00;;;;;;;8.04;76.99;101058.44;7367259;19;20349;-61
2022/10/10 05:22:55;;;;;;;0.00;0.00;;;;;;;8.03;77.76;101051.53;7365750;19;20485;-60
2022/10/10 05:25:20;;;;;;;0.00;0.00;;;;;;;8.07;77.69;101071.44;7365261;19;20018;-60
2022/10/10 05:27:46;;;;;;;0.00;0.00;;;;;;;7.92;77.79;101057.69;7364303;19;20018;-60
2022/10/10 05:30:12;;;;;;;0.00;0.00;;;;;;;8.05;77.82;101086.19;7362808;19;20053;-60
2022/10/10 05:32:37;;;;;;;0.00;0.00;;;;;;;8.08;77.82;101095.72;7365381;19;20533;-61
2022/10/10 05:35:03;;;;;;;0.00;0.00;;;;;;;8.07;77.79;101100.06;7363633;19;20017;-61
2022/10/10 05:37:30;;;;;;;0.00;0.00;;;;;;;8.01;77.76;101094.91;7364189;19;20394;-60
2022/10/10 05:39:56;;;;;;;0.00;0.00;;;;;;;8.06;77.79;101098.34;7365625;19;20577;-61
2022/10/10 05:42:21;;;;;;;0.00;0.00;;;;;;;7.93;77.67;101081.06;7364257;19;20011;-61
2022/10/10 05:44:47;;;;;;;0.00;0.00;;;;;;;7.95;77.89;101099.25;7363988;19;20006;-61
2022/10/10 05:47:13;;;;;;;0.00;0.00;;;;;;;7.89;77.54;101094.94;7362866;19;20474;-60
2022/10/10 05:49:39;;;;;;;0.00;0.00;;;;;;;8.00;78.01;101110.50;7363271;19;20026;-61
2022/10/10 05:52:04;;;;;;;0.00;0.00;;;;;;;8.03;78.01;101129.56;7364618;19;20045;-60
2022/10/10 05:54:29;;;;;;;0.10;0.10;;;;;;;8.03;77.84;101134.75;7364533;19;20053;-60
2022/10/10 05:56:55;;;;;;;0.00;0.00;;;;;;;8.01;77.82;101130.44;7361689;19;20030;-60
2022/10/10 05:59:20;;;;;;;0.00;0.00;;;;;;;7.96;77.10;101127.88;7356176;19;20802;-61
2022/10/10 06:01:46;;;;;;;0.00;0.00;;;;;;;8.00;77.73;101137.34;7363119;19;20504;-61
2022/10/10 06:04:11;;;;;;;0.00;0.00;;;;;;;8.01;77.82;101152.13;7363099;19;20481;-61
2022/10/10 06:06:36;;;;;;;0.00;0.00;;;;;;;7.99;77.79;101143.44;7359919;19;20023;-61
2022/10/10 06:09:02;;;;;;;0.10;0.10;;;;;;;7.99;77.73;101151.25;7361513;19;20045;-61
2022/10/10 06:11:28;;;;;;;0.00;0.00;;;;;;;7.96;77.66;101153.88;7361476;19;20025;-60
2022/10/10 06:13:54;;;;;;;0.05;0.05;;;;;;;7.92;77.29;101146.09;7363000;19;20014;-61
2022/10/10 06:16:24;;;;;;;0.00;0.00;;;;;;;7.87;77.45;101147.84;7359069;19;20757;-59
2022/10/10 06:18:50;;;;;;;0.00;0.00;;;;;;;7.91;76.98;101158.22;7362023;19;20022;-61
2022/10/10 06:21:16;;;;;;;0.00;0.00;;;;;;;7.93;77.11;101164.28;7362385;19;20013;-60
2022/10/10 06:23:42;;;;;;;0.00;0.00;;;;;;;7.89;77.67;101166.91;7361246;19;20017;-60
2022/10/10 06:26:08;;;;;;;0.00;0.00;;;;;;;7.94;77.50;101185.94;7362552;19;20002;-61
2022/10/10 06:28:34;;;;;;;0.10;0.10;;;;;;;7.86;77.46;101183.38;7358681;19;20013;-60
2022/10/10 06:31:01;;;;;;;0.00;0.00;;;;;;;7.91;77.93;101192.03;7361208;19;20066;-61
2022/10/10 06:33:27;;;;;;;0.00;0.00;;;;;;;7.91;77.28;101199.84;7360219;19;20713;-60
2022/10/10 06:35:53;;;;;;;0.00;0.00;;;;;;;7.89;77.37;101208.50;7357344;19;20113;-61
2022/10/10 06:38:18;;;;;;;0.00;0.00;;;;;;;7.87;77.34;101205.91;7361644;19;20094;-60
2022/10/10 06:40:44;;;;;;;0.00;0.00;;;;;;;7.87;77.79;101205.06;7368303;19;20007;-60
2022/10/10 06:43:12;;;;;;;0.00;0.00;;;;;;;7.71;77.74;101184.31;7355487;19;20010;-58
2022/10/10 06:45:42;;;;;;;0.00;0.00;;;;;;;7.81;77.87;101205.94;7366608;19;20006;-61
2022/10/10 06:48:12;;;;;;;0.00;0.00;;;;;;;7.85;77.49;101218.03;7367979;19;20090;-60
2022/10/10 06:50:38;;;;;;;0.00;0.00;;;;;;;7.77;77.58;101215.47;7370636;19;20473;-60
2022/10/10 06:53:04;;;;;;;0.00;0.00;;;;;;;7.82;77.33;101238.88;7361918;19;20022;-59
2022/10/10 06:55:30;;;;;;;0.00;0.00;;;;;;;7.67;77.80;101207.72;7364603;19;20839;-61
2022/10/10 06:57:56;;;;;;;0.08;0.08;;;;;;;7.80;77.45;101240.59;7371117;19;20097;-60
2022/10/10 07:00:21;;;;;;;0.00;0.00;;;;;;;7.78;77.82;101243.19;7368029;19;20014;-61
2022/10/10 07:02:47;;;;;;;0.00;0.00;;;;;;;7.75;77.71;101247.53;7365579;19;20018;-60
2022/10/10 07:05:15;;;;;;;0.00;0.00;;;;;;;7.81;78.09;101263.16;7368804;19;20022;-58
2022/10/10 07:07:41;;;;;;;0.00;0.00;;;;;;;7.82;78.16;101264.88;7364933;19;20049;-60
2022/10/10 07:10:09;;;;;;;0.03;0.03;;;;;;;7.82;77.87;101264.88;7367651;19;20039;-60
2022/10/10 07:12:34;;;;;;;;;;;;;;;7.86;76.83;101271.81;7367029;19;20007;-60
2022/10/10 07:15:00;;;;;;;0.00;0.00;;;;;;;7.86;77.41;101278.75;7369677;19;19930;-60
2022/10/10 07:17:25;;;;;;;0.00;0.00;;;;;;;7.72;77.55;101260.56;7368975;19;20018;-60
2022/10/10 07:19:51;;;;;;;0.00;0.00;;;;;;;7.88;77.79;101280.44;7368707;19;20022;-60
2022/10/10 07:22:16;;;;;;;0.00;0.00;;;;;;;7.71;77.97;101256.22;7366081;19;20094;-63
2022/10/10 07:24:42;;;;;;;0.00;0.00;;;;;;;7.88;78.23;101283.03;7368723;19;20381;-60
2022/10/10 07:27:07;;;;;;;0.00;0.00;;;;;;;7.91;78.03;101290.84;7363822;19;20097;-60
2022/10/10 07:29:33;;;;;;;0.00;0.00;;;;;;;7.95;77.92;101297.75;7365707;19;23139;-61
2022/10/10 07:31:58;;;;;;;0.00;0.00;;;;;;;7.98;78.27;101296.91;7368683;19;20010;-61
2022/10/10 07:34:24;;;;;;;0.00;0.00;;;;;;;8.02;78.40;101306.44;7364767;19;20018;-60
2022/10/10 07:36:49;;;;;;;0.00;0.00;;;;;;;8.04;78.61;101308.13;7365007;19;20014;-60
2022/10/10 07:39:19;;;;;;;0.00;0.00;;;;;;;7.99;78.27;101289.09;7366039;19;20011;-60
2022/10/10 07:41:45;;;;;;;0.00;0.00;;;;;;;8.14;78.50;101318.53;7366514;19;20026;-60
2022/10/10 07:44:10;;;;;;;0.00;0.00;;;;;;;8.06;78.40;101301.22;7364638;19;20010;-60
2022/10/10 07:46:35;;;;;;;0.00;0.00;;;;;;;8.22;78.66;101328.06;7370372;19;20039;-60
2022/10/10 07:49:01;;;;;;;0.00;0.00;;;;;;;8.12;78.36;101304.66;7365284;19;20114;-60
2022/10/10 07:51:26;;;;;;;0.00;0.00;;;;;;;8.25;78.40;101321.94;7364981;19;20535;-60
2022/10/10 07:53:52;;;;;;;0.00;0.00;;;;;;;8.27;78.37;101320.22;7366063;19;20003;-61
2022/10/10 07:56:17;;;;;;;0.00;0.00;;;;;;;8.45;78.51;101330.59;7366109;19;20772;-61
2022/10/10 07:58:43;;;;;;;0.10;0.10;;;;;;;8.58;78.47;101347.03;7367248;19;20024;-60
2022/10/10 08:01:10;;;;;;;0.00;0.00;;;;;;;8.34;78.44;101290.69;7367961;19;20403;-60
2022/10/10 08:03:37;;;;;;;0.00;0.00;;;;;;;8.81;78.68;101359.94;7367470;19;20010;-61
2022/10/10 08:06:04;;;;;;;0.00;0.00;;;;;;;8.97;78.47;101356.41;7366117;19;20022;-61
2022/10/10 08:08:30;;;;;;;0.00;0.00;;;;;;;9.09;78.48;101366.75;7365922;19;20011;-60
2022/10/10 08:10:56;;;;;;;0.00;0.00;;;;;;;9.24;78.23;101365.78;7365734;19;20050;-61
2022/10/10 08:13:22;;;;;;;0.00;0.00;;;;;;;9.33;78.29;101367.47;7366558;19;20025;-61
2022/10/10 08:15:50;;;;;;;0.00;0.00;;;;;;;9.56;77.88;101377.72;7365918;19;23664;-60
2022/10/10 08:18:15;;;;;;;0.10;0.10;;;;;;;9.70;78.13;101386.31;7368288;19;20021;-61
2022/10/10 08:20:40;;;;;;;0.00;0.00;;;;;;;9.84;77.88;101386.19;7369139;19;21759;-61
2022/10/10 08:23:06;;;;;;;0.00;0.00;;;;;;;9.97;77.93;101394.75;7362658;19;20038;-61
2022/10/10 08:25:31;;;;;;;0.00;0.00;;;;;;;10.13;77.65;101402.41;7367068;19;20010;-60
2022/10/10 08:27:57;;;;;;;0.00;0.00;;;;;;;10.34;78.12;101397.91;7364341;19;20010;-61
2022/10/10 08:30:22;;;;;;;0.00;0.00;;;;;;;10.45;77.88;101395.19;7367453;19;20374;-61
2022/10/10 08:32:48;;;;;;;0.00;0.00;;;;;;;10.63;77.76;101403.66;7366215;19;20018;-61
2022/10/10 08:35:14;;;;;;;0.00;0.00;;;;;;;10.72;77.53;101391.38;7365719;19;20014;-60
2022/10/10 08:37:39;;;;;;;0.00;0.00;;;;;;;10.94;76.90;101412.88;7361479;19;20020;-61
2022/10/10 08:40:05;;;;;;;0.00;0.00;;;;;;;11.02;76.67;101406.69;7361048;19;20098;-61
2022/10/10 08:42:39;;;;;;;0.00;0.00;;;;;;;11.23;77.41;101405.50;7367157;19;20021;-61
2022/10/10 08:45:13;;;;;;;0.00;0.00;;;;;;;11.51;77.14;101426.91;7362977;19;20010;-61
2022/10/10 08:48:13;;;;;;;0.00;0.00;;;;;;;11.76;77.68;101431.75;7363294;19;20010;-61
2022/10/10 08:50:47;;;;;;;0.00;0.00;;;;;;;11.89;77.20;101438.56;7260645;19;2004160;-61
2022/10/10 08:53:35;;;;;;;0.00;0.00;;;;;;;12.10;76.98;101448.66;7365230;19;20010;-61
2022/10/10 08:56:04;;;;;;;0.00;0.00;;;;;;;12.14;76.15;101445.09;7361812;19;20424;-61
2022/10/10 08:58:36;;;;;;;0.00;0.00;;;;;;;12.38;76.23;101448.19;7364242;19;20017;-61
2022/10/10 09:01:18;;;;;;;0.00;0.00;;;;;;;12.59;76.48;101458.25;7363317;19;20473;-61
2022/10/10 09:03:49;;;;;;;0.10;0.10;;;;;;;12.72;75.74;101462.38;7367330;19;20018;-61
2022/10/10 09:06:17;;;;;;;0.00;0.00;;;;;;;12.85;75.48;101459.53;7363149;19;20017;-61
2022/10/10 09:09:06;;;;;;;0.00;0.00;;;;;;;13.03;76.04;101453.91;7367238;19;20078;-61
2022/10/10 09:11:50;;;;;;;0.00;0.00;;;;;;;13.29;75.71;101481.38;7363312;19;20017;-61
2022/10/10 09:14:56;;;;;;;0.00;0.00;;;;;;;13.47;75.16;101475.72;7362617;19;20006;-61
2022/10/10 09:17:37;;;;;;;0.00;0.00;;;;;;;13.64;74.67;101473.59;7256874;19;2004275;-62
2022/10/10 09:20:21;;;;;;;0.00;0.00;;;;;;;13.83;74.50;101484.50;7364554;19;20058;-62
2022/10/10 09:22:56;;;;;;;0.00;0.00;;;;;;;13.94;73.87;101486.91;7367230;19;20356;-61
2022/10/10 09:25:26;;;;;;;0.00;0.00;;;;;;;14.10;73.16;101477.72;7366203;19;20006;-62
2022/10/10 09:28:09;;;;;;;0.00;0.00;;;;;;;14.28;73.71;101472.00;7365894;19;20714;-61
2022/10/10 09:30:43;;;;;;;0.03;0.03;;;;;;;14.43;72.60;101477.75;7364636;19;20006;-61
2022/10/10 09:33:26;;;;;;;0.00;0.00;;;;;;;14.78;73.00;101504.00;7363983;19;20409;-61
2022/10/10 09:35:54;;;;;;;0.00;0.00;;;;;;;14.87;71.90;101497.63;7361351;19;20036;-62
2022/10/10 09:38:32;;;;;;;0.00;0.00;;;;;;;15.02;71.64;101507.72;7362679;19;20009;-62
2022/10/10 09:41:07;;;;;;;0.00;0.00;;;;;;;15.28;71.79;101506.97;7361805;19;20798;-62
2022/10/10 09:43:34;;;;;;;0.00;0.00;;;;;;;15.37;70.36;101513.75;7364184;19;20014;-62
2022/10/10 09:46:00;;;;;;;0.00;0.00;;;;;;;15.57;70.94;101521.03;7361547;19;20451;-62
2022/10/10 09:48:33;;;;;;;0.00;0.00;;;;;;;15.82;70.69;101521.19;7363510;19;20078;-62
2022/10/10 09:51:01;;;;;;;0.00;0.00;;;;;;;15.88;69.70;101520.13;7364807;19;20853;-62
2022/10/10 09:53:27;;;;;;;0.10;0.10;;;;;;;16.06;69.08;101530.06;7364442;19;20010;-62
2022/10/10 09:55:53;;;;;;;0.00;0.00;;;;;;;16.24;68.82;101529.47;7362199;19;20347;-62
2022/10/10 09:58:40;;;;;;;0.00;0.00;;;;;;;16.54;69.63;101537.25;7366929;19;20015;-61
2022/10/10 10:01:32;;;;;;;0.00;0.00;;;;;;;16.75;69.65;101540.97;7365453;19;20480;-62
2022/10/10 10:04:09;;;;;;;0.00;0.00;;;;;;;16.95;69.14;101540.25;7363169;19;20015;-62
2022/10/10 10:06:35;;;;;;;0.05;0.05;;;;;;;17.04;67.91;101542.59;7364673;19;20015;-61
2022/10/10 10:09:04;;;;;;;0.00;0.00;;;;;;;17.26;67.96;101545.28;7365933;19;20026;-61
2022/10/10 10:11:40;;;;;;;0.00;0.00;;;;;;;17.43;67.55;101539.38;7364403;19;20006;-61
2022/10/10 10:14:17;;;;;;;0.00;0.00;;;;;;;17.53;66.53;101538.09;7362869;19;20027;-62
2022/10/10 10:16:42;;;;;;;0.10;0.10;;;;;;;17.73;66.00;101548.78;7364342;19;20015;-62
2022/10/10 10:19:29;;;;;;;0.00;0.00;;;;;;;18.08;67.91;101555.31;7365160;19;23076;-62
2022/10/10 10:21:54;;;;;;;0.10;0.10;;;;;;;18.12;65.50;101548.13;7262197;19;2004405;-62
2022/10/10 10:24:27;;;;;;;0.10;0.10;;;;;;;18.30;65.33;101555.31;7363093;19;20021;-62
2022/10/10 10:26:53;;;;;;;0.10;0.10;;;;;;;18.49;64.79;101557.19;7361809;19;20741;-62
2022/10/10 10:29:27;;;;;;;0.00;0.00;;;;;;;18.81;65.67;101556.72;7364871;19;20082;-62
2022/10/10 10:32:12;;;;;;;0.00;0.00;;;;;;;19.05;65.63;101553.91;7364120;19;20084;-62
2022/10/10 10:35:08;;;;;;;0.00;0.00;;;;;;;19.34;64.65;101566.69;7364528;19;20025;-62
2022/10/10 10:38:00;;;;;;;0.10;0.10;;;;;;;19.73;65.74;101563.19;7261101;19;2004474;-62
2022/10/10 10:40:49;;;;;;;0.00;0.00;;;;;;;20.02;65.35;101568.84;7257805;19;2004418;-62
2022/10/10 10:43:48;;;;;;;0.10;0.10;;;;;;;20.22;64.82;101560.78;7364426;19;20018;-62
2022/10/10 10:46:26;;;;;;;0.00;0.00;;;;;;;20.52;64.05;101574.34;7255922;19;2004016;-62
2022/10/10 10:49:15;;;;;;;0.00;0.00;;;;;;;20.72;63.85;101571.56;7364578;19;20014;-62
2022/10/10 10:51:49;;;;;;;0.00;0.00;;;;;;;20.98;63.05;101578.19;7360728;19;20454;-62
2022/10/10 10:54:37;;;;;;;0.10;0.10;;;;;;;21.18;61.17;101590.41;7364676;19;20051;-62
2022/10/10 10:57:12;;;;;;;0.10;0.10;;;;;;;21.45;60.87;101592.56;7363750;19;20473;-62
2022/10/10 10:59:50;;;;;;;0.10;0.10;;;;;;;21.67;61.52;101594.91;7362831;19;20530;-62
2022/10/10 11:02:39;;;;;;;0.10;0.10;;;;;;;21.95;63.56;101597.75;7362676;19;20807;-62
2022/10/10 11:05:13;;;;;;;0.00;0.00;;;;;;;22.01;59.35;101596.56;7363082;19;20050;-62
2022/10/10 11:07:51;;;;;;;0.10;0.10;;;;;;;22.47;61.08;101600.13;7363000;19;20010;-62
2022/10/10 11:10:55;;;;;;;0.10;0.10;;;;;;;22.72;61.62;101609.34;7363946;19;20411;-62
2022/10/10 11:13:43;;;;;;;0.10;0.10;;;;;;;22.90;60.97;101602.94;7262728;19;2004491;-62
2022/10/10 11:16:17;;;;;;;0.00;0.00;;;;;;;23.02;58.12;101612.88;7363383;19;20014;-62
2022/10/10 11:19:09;;;;;;;0.10;0.10;;;;;;;23.31;60.70;101603.06;7364209;19;20019;-62
2022/10/10 11:21:45;;;;;;;0.10;0.10;;;;;;;23.51;59.59;101623.16;7261230;19;2004446;-62
2022/10/10 11:24:14;;;;;;;0.10;0.10;;;;;;;23.62;57.85;101622.53;7362564;19;20018;-62
2022/10/10 11:26:53;;;;;;;0.00;0.00;;;;;;;23.97;59.84;101625.63;7367825;19;20017;-62
2022/10/10 11:29:49;;;;;;;0.10;0.10;;;;;;;24.33;61.08;101630.41;7369947;19;20620;-62
2022/10/10 11:32:20;;;;;;;0.10;0.10;;;;;;;24.47;55.26;101626.81;7265241;19;2005404;-62
2022/10/10 11:34:55;;;;;;;0.00;0.00;;;;;;;24.56;54.78;101631.56;7369291;19;20017;-62
2022/10/10 11:37:25;;;;;;;0.10;0.10;;;;;;;24.81;57.86;101632.59;7367291;19;20013;-63
2022/10/10 11:40:02;;;;;;;0.10;0.10;;;;;;;25.04;57.20;101642.56;7369979;19;20014;-62
2022/10/10 11:42:36;;;;;;;;;;;;;;;25.41;61.03;101645.38;7370041;19;20466;-63
2022/10/10 11:45:04;;;;;;;0.00;0.00;;;;;;;25.41;52.84;101649.88;7367132;19;19933;-62
2022/10/10 11:47:47;;;;;;;0.05;0.05;;;;;;;25.46;56.89;101659.28;7368678;19;20050;-62